sensor_id;sensor_type;location;lat;lon;timestamp;P1;durP1;ratioP1;P2;durP2;ratioP2
17171;SDS011;8701;50.150;8.756;2024-02-23T00:03:13;1.33;;;0.60;;
17171;SDS011;8701;50.150;8.756;2024-02-23T00:07:15;0.80;;;0.60;;
17171;SDS011;8701;50.150;8.756;2024-02-23T00:11:18;1.63;;;0.60;;
17171;SDS011;8701;50.150;8.756;2024-02-23T00:15:20;2.60;;;0.93;;
17171;SDS011;8701;50.150;8.756;2024-02-23T00:19:25;1.23;;;0.77;;
17171;SDS011;8701;50.150;8.756;2024-02-23T00:23:28;0.70;;;0.70;;
17171;SDS011;8701;50.150;8.756;2024-02-23T00:27:30;2.13;;;0.93;;
17171;SDS011;8701;50.150;8.756;2024-02-23T00:31:32;2.20;;;0.83;;
17171;SDS011;8701;50.150;8.756;2024-02-23T00:35:36;1.80;;;0.77;;
17171;SDS011;8701;50.150;8.756;2024-02-23T00:39:38;1.23;;;1.00;;
17171;SDS011;8701;50.150;8.756;2024-02-23T00:43:41;0.60;;;0.60;;
17171;SDS011;8701;50.150;8.756;2024-02-23T00:47:44;1.30;;;1.00;;
17171;SDS011;8701;50.150;8.756;2024-02-23T00:51:49;1.97;;;0.80;;
17171;SDS011;8701;50.150;8.756;2024-02-23T00:55:51;3.03;;;0.90;;
17171;SDS011;8701;50.150;8.756;2024-02-23T00:59:53;0.80;;;0.80;;
17171;SDS011;8701;50.150;8.756;2024-02-23T01:03:55;3.47;;;0.80;;
17171;SDS011;8701;50.150;8.756;2024-02-23T01:08:00;3.17;;;0.90;;
17171;SDS011;8701;50.150;8.756;2024-02-23T01:12:02;2.37;;;1.00;;
17171;SDS011;8701;50.150;8.756;2024-02-23T01:16:05;1.43;;;0.70;;
17171;SDS011;8701;50.150;8.756;2024-02-23T01:20:08;1.00;;;0.80;;
17171;SDS011;8701;50.150;8.756;2024-02-23T01:24:12;1.43;;;0.70;;
17171;SDS011;8701;50.150;8.756;2024-02-23T01:28:15;1.33;;;0.83;;
17171;SDS011;8701;50.150;8.756;2024-02-23T01:32:17;1.43;;;0.90;;
17171;SDS011;8701;50.150;8.756;2024-02-23T01:36:19;1.20;;;0.80;;
17171;SDS011;8701;50.150;8.756;2024-02-23T01:40:23;1.17;;;0.70;;
17171;SDS011;8701;50.150;8.756;2024-02-23T01:44:25;1.63;;;0.70;;
17171;SDS011;8701;50.150;8.756;2024-02-23T01:48:27;1.00;;;0.90;;
17171;SDS011;8701;50.150;8.756;2024-02-23T01:52:30;2.17;;;0.80;;
17171;SDS011;8701;50.150;8.756;2024-02-23T01:56:33;3.37;;;0.90;;
17171;SDS011;8701;50.150;8.756;2024-02-23T02:00:37;1.63;;;0.70;;
17171;SDS011;8701;50.150;8.756;2024-02-23T02:04:39;2.63;;;0.70;;
17171;SDS011;8701;50.150;8.756;2024-02-23T02:08:41;0.90;;;0.63;;
17171;SDS011;8701;50.150;8.756;2024-02-23T02:12:46;1.93;;;0.60;;
17171;SDS011;8701;50.150;8.756;2024-02-23T02:16:48;0.80;;;0.70;;
17171;SDS011;8701;50.150;8.756;2024-02-23T02:20:50;0.70;;;0.70;;
17171;SDS011;8701;50.150;8.756;2024-02-23T02:24:54;3.17;;;0.50;;
17171;SDS011;8701;50.150;8.756;2024-02-23T02:28:57;0.60;;;0.60;;
17171;SDS011;8701;50.150;8.756;2024-02-23T02:33:00;3.70;;;0.67;;
17171;SDS011;8701;50.150;8.756;2024-02-23T02:37:02;0.70;;;0.70;;
17171;SDS011;8701;50.150;8.756;2024-02-23T02:41:04;2.20;;;0.60;;
17171;SDS011;8701;50.150;8.756;2024-02-23T02:45:08;0.50;;;0.47;;
17171;SDS011;8701;50.150;8.756;2024-02-23T02:49:10;0.50;;;0.50;;
17171;SDS011;8701;50.150;8.756;2024-02-23T02:53:12;2.10;;;0.60;;
17171;SDS011;8701;50.150;8.756;2024-02-23T02:57:14;0.80;;;0.63;;
17171;SDS011;8701;50.150;8.756;2024-02-23T03:01:18;0.83;;;0.63;;
17171;SDS011;8701;50.150;8.756;2024-02-23T03:05:20;1.03;;;0.70;;
17171;SDS011;8701;50.150;8.756;2024-02-23T03:09:22;0.90;;;0.60;;
17171;SDS011;8701;50.150;8.756;2024-02-23T03:13:25;2.40;;;0.80;;
17171;SDS011;8701;50.150;8.756;2024-02-23T03:17:28;1.33;;;0.60;;
17171;SDS011;8701;50.150;8.756;2024-02-23T03:21:31;4.20;;;0.80;;
17171;SDS011;8701;50.150;8.756;2024-02-23T03:25:34;2.40;;;0.70;;
17171;SDS011;8701;50.150;8.756;2024-02-23T03:29:37;3.40;;;0.60;;
17171;SDS011;8701;50.150;8.756;2024-02-23T03:33:41;0.70;;;0.70;;
17171;SDS011;8701;50.150;8.756;2024-02-23T03:37:43;1.17;;;0.70;;
17171;SDS011;8701;50.150;8.756;2024-02-23T03:41:45;3.07;;;1.10;;
17171;SDS011;8701;50.150;8.756;2024-02-23T03:45:48;1.17;;;0.70;;
17171;SDS011;8701;50.150;8.756;2024-02-23T03:49:51;2.80;;;0.77;;
17171;SDS011;8701;50.150;8.756;2024-02-23T03:53:54;1.30;;;0.60;;
17171;SDS011;8701;50.150;8.756;2024-02-23T03:57:56;3.60;;;1.30;;
17171;SDS011;8701;50.150;8.756;2024-02-23T04:01:58;1.80;;;0.83;;
17171;SDS011;8701;50.150;8.756;2024-02-23T04:06:02;4.80;;;1.00;;
17171;SDS011;8701;50.150;8.756;2024-02-23T04:10:05;7.97;;;0.90;;
17171;SDS011;8701;50.150;8.756;2024-02-23T04:14:08;0.67;;;0.50;;
17171;SDS011;8701;50.150;8.756;2024-02-23T04:18:11;4.20;;;1.00;;
17171;SDS011;8701;50.150;8.756;2024-02-23T04:22:14;2.20;;;0.67;;
17171;SDS011;8701;50.150;8.756;2024-02-23T04:26:17;2.93;;;1.10;;
17171;SDS011;8701;50.150;8.756;2024-02-23T04:30:19;3.83;;;0.80;;
17171;SDS011;8701;50.150;8.756;2024-02-23T04:34:21;1.83;;;0.70;;
17171;SDS011;8701;50.150;8.756;2024-02-23T04:38:25;3.73;;;0.80;;
17171;SDS011;8701;50.150;8.756;2024-02-23T04:42:27;1.23;;;0.97;;
17171;SDS011;8701;50.150;8.756;2024-02-23T04:46:30;1.50;;;0.70;;
17171;SDS011;8701;50.150;8.756;2024-02-23T04:50:34;2.40;;;0.83;;
17171;SDS011;8701;50.150;8.756;2024-02-23T04:54:38;0.90;;;0.70;;
17171;SDS011;8701;50.150;8.756;2024-02-23T04:58:40;4.00;;;1.00;;
17171;SDS011;8701;50.150;8.756;2024-02-23T05:02:43;1.50;;;0.90;;
17171;SDS011;8701;50.150;8.756;2024-02-23T05:06:45;1.90;;;1.10;;
17171;SDS011;8701;50.150;8.756;2024-02-23T05:10:49;4.43;;;1.07;;
17171;SDS011;8701;50.150;8.756;2024-02-23T05:14:52;6.00;;;1.20;;
17171;SDS011;8701;50.150;8.756;2024-02-23T05:18:55;6.80;;;1.20;;
17171;SDS011;8701;50.150;8.756;2024-02-23T05:22:57;1.60;;;0.93;;
17171;SDS011;8701;50.150;8.756;2024-02-23T05:27:01;3.13;;;1.17;;
17171;SDS011;8701;50.150;8.756;2024-02-23T05:31:04;3.33;;;1.50;;
17171;SDS011;8701;50.150;8.756;2024-02-23T05:35:06;1.00;;;1.00;;
17171;SDS011;8701;50.150;8.756;2024-02-23T05:39:09;2.80;;;1.17;;
17171;SDS011;8701;50.150;8.756;2024-02-23T05:43:12;2.93;;;1.03;;
17171;SDS011;8701;50.150;8.756;2024-02-23T05:47:14;4.93;;;1.40;;
17171;SDS011;8701;50.150;8.756;2024-02-23T05:51:17;1.23;;;1.13;;
17171;SDS011;8701;50.150;8.756;2024-02-23T05:55:19;2.87;;;1.17;;
17171;SDS011;8701;50.150;8.756;2024-02-23T05:59:23;1.53;;;0.90;;
17171;SDS011;8701;50.150;8.756;2024-02-23T06:03:25;1.60;;;1.07;;
17171;SDS011;8701;50.150;8.756;2024-02-23T06:07:27;3.10;;;1.10;;
17171;SDS011;8701;50.150;8.756;2024-02-23T06:11:30;1.13;;;0.83;;
17171;SDS011;8701;50.150;8.756;2024-02-23T06:15:33;1.10;;;0.80;;
17171;SDS011;8701;50.150;8.756;2024-02-23T06:19:36;2.00;;;1.00;;
17171;SDS011;8701;50.150;8.756;2024-02-23T06:23:38;1.73;;;0.90;;
17171;SDS011;8701;50.150;8.756;2024-02-23T06:27:41;1.80;;;1.20;;
17171;SDS011;8701;50.150;8.756;2024-02-23T06:31:45;1.33;;;0.87;;
17171;SDS011;8701;50.150;8.756;2024-02-23T06:35:49;3.90;;;1.13;;
17171;SDS011;8701;50.150;8.756;2024-02-23T06:39:52;2.73;;;1.13;;
17171;SDS011;8701;50.150;8.756;2024-02-23T06:43:55;2.30;;;0.87;;
17171;SDS011;8701;50.150;8.756;2024-02-23T06:47:58;2.70;;;1.23;;
17171;SDS011;8701;50.150;8.756;2024-02-23T06:52:01;3.90;;;1.00;;
17171;SDS011;8701;50.150;8.756;2024-02-23T06:56:04;2.10;;;1.10;;
17171;SDS011;8701;50.150;8.756;2024-02-23T07:00:06;4.83;;;1.00;;
17171;SDS011;8701;50.150;8.756;2024-02-23T07:04:11;2.93;;;1.50;;
17171;SDS011;8701;50.150;8.756;2024-02-23T07:08:14;13.33;;;1.20;;
17171;SDS011;8701;50.150;8.756;2024-02-23T07:12:17;6.77;;;1.03;;
17171;SDS011;8701;50.150;8.756;2024-02-23T07:16:19;4.07;;;0.90;;
17171;SDS011;8701;50.150;8.756;2024-02-23T07:20:22;3.40;;;1.00;;
17171;SDS011;8701;50.150;8.756;2024-02-23T07:24:25;1.97;;;0.80;;
17171;SDS011;8701;50.150;8.756;2024-02-23T07:28:27;2.70;;;0.90;;
17171;SDS011;8701;50.150;8.756;2024-02-23T07:32:29;2.77;;;1.30;;
17171;SDS011;8701;50.150;8.756;2024-02-23T07:36:33;1.87;;;0.87;;
17171;SDS011;8701;50.150;8.756;2024-02-23T07:40:35;6.03;;;0.83;;
17171;SDS011;8701;50.150;8.756;2024-02-23T07:44:38;1.87;;;0.70;;
17171;SDS011;8701;50.150;8.756;2024-02-23T07:48:40;1.03;;;0.83;;
17171;SDS011;8701;50.150;8.756;2024-02-23T07:52:44;4.30;;;0.80;;
17171;SDS011;8701;50.150;8.756;2024-02-23T07:56:46;2.30;;;1.17;;
17171;SDS011;8701;50.150;8.756;2024-02-23T08:00:49;3.80;;;0.90;;
17171;SDS011;8701;50.150;8.756;2024-02-23T08:04:52;2.50;;;0.80;;
17171;SDS011;8701;50.150;8.756;2024-02-23T08:08:56;2.87;;;0.90;;
17171;SDS011;8701;50.150;8.756;2024-02-23T08:12:58;1.43;;;0.73;;
17171;SDS011;8701;50.150;8.756;2024-02-23T08:17:01;1.83;;;1.00;;
17171;SDS011;8701;50.150;8.756;2024-02-23T08:21:04;2.13;;;0.83;;
17171;SDS011;8701;50.150;8.756;2024-02-23T08:25:08;2.27;;;1.03;;
17171;SDS011;8701;50.150;8.756;2024-02-23T08:29:11;1.83;;;1.00;;
17171;SDS011;8701;50.150;8.756;2024-02-23T08:33:13;2.00;;;0.90;;
17171;SDS011;8701;50.150;8.756;2024-02-23T08:37:16;2.70;;;0.80;;
17171;SDS011;8701;50.150;8.756;2024-02-23T08:41:23;3.53;;;1.10;;
17171;SDS011;8701;50.150;8.756;2024-02-23T08:45:25;2.40;;;0.80;;
17171;SDS011;8701;50.150;8.756;2024-02-23T08:49:28;0.80;;;0.80;;
17171;SDS011;8701;50.150;8.756;2024-02-23T08:53:30;4.10;;;1.07;;
17171;SDS011;8701;50.150;8.756;2024-02-23T08:57:34;1.27;;;0.87;;
17171;SDS011;8701;50.150;8.756;2024-02-23T09:01:37;2.37;;;1.00;;
17171;SDS011;8701;50.150;8.756;2024-02-23T09:05:40;5.07;;;1.33;;
17171;SDS011;8701;50.150;8.756;2024-02-23T09:09:42;4.20;;;0.97;;
17171;SDS011;8701;50.150;8.756;2024-02-23T09:13:45;3.10;;;1.03;;
17171;SDS011;8701;50.150;8.756;2024-02-23T09:17:48;2.93;;;1.00;;
17171;SDS011;8701;50.150;8.756;2024-02-23T09:21:50;1.93;;;0.80;;
17171;SDS011;8701;50.150;8.756;2024-02-23T09:25:52;4.03;;;1.00;;
17171;SDS011;8701;50.150;8.756;2024-02-23T09:29:56;4.37;;;1.00;;
17171;SDS011;8701;50.150;8.756;2024-02-23T09:33:59;3.33;;;1.27;;
17171;SDS011;8701;50.150;8.756;2024-02-23T09:38:01;2.87;;;0.90;;
17171;SDS011;8701;50.150;8.756;2024-02-23T09:42:04;3.60;;;1.00;;
17171;SDS011;8701;50.150;8.756;2024-02-23T09:46:12;5.57;;;1.00;;
17171;SDS011;8701;50.150;8.756;2024-02-23T09:50:15;1.57;;;1.10;;
17171;SDS011;8701;50.150;8.756;2024-02-23T09:54:21;1.33;;;0.70;;
17171;SDS011;8701;50.150;8.756;2024-02-23T09:58:28;1.97;;;1.03;;
17171;SDS011;8701;50.150;8.756;2024-02-23T10:02:32;2.80;;;1.20;;
17171;SDS011;8701;50.150;8.756;2024-02-23T10:06:34;6.50;;;1.30;;
17171;SDS011;8701;50.150;8.756;2024-02-23T10:10:36;3.80;;;1.20;;
17171;SDS011;8701;50.150;8.756;2024-02-23T10:14:40;4.40;;;1.30;;
17171;SDS011;8701;50.150;8.756;2024-02-23T10:18:44;6.43;;;1.30;;
17171;SDS011;8701;50.150;8.756;2024-02-23T10:22:47;3.93;;;1.20;;
17171;SDS011;8701;50.150;8.756;2024-02-23T10:26:50;2.97;;;1.00;;
17171;SDS011;8701;50.150;8.756;2024-02-23T10:30:53;3.03;;;1.00;;
17171;SDS011;8701;50.150;8.756;2024-02-23T10:34:58;5.87;;;1.57;;
17171;SDS011;8701;50.150;8.756;2024-02-23T10:39:04;3.77;;;1.60;;
17171;SDS011;8701;50.150;8.756;2024-02-23T10:43:11;2.67;;;1.17;;
17171;SDS011;8701;50.150;8.756;2024-02-23T10:47:18;2.50;;;0.90;;
17171;SDS011;8701;50.150;8.756;2024-02-23T10:51:24;4.40;;;1.23;;
17171;SDS011;8701;50.150;8.756;2024-02-23T10:55:28;5.17;;;1.30;;
17171;SDS011;8701;50.150;8.756;2024-02-23T10:59:32;1.07;;;0.90;;
17171;SDS011;8701;50.150;8.756;2024-02-23T11:03:36;3.80;;;1.00;;
17171;SDS011;8701;50.150;8.756;2024-02-23T11:07:41;2.00;;;0.90;;
17171;SDS011;8701;50.150;8.756;2024-02-23T11:11:50;4.60;;;1.63;;
17171;SDS011;8701;50.150;8.756;2024-02-23T11:16:00;3.83;;;1.10;;
17171;SDS011;8701;50.150;8.756;2024-02-23T11:20:04;2.90;;;1.20;;
17171;SDS011;8701;50.150;8.756;2024-02-23T11:24:08;6.00;;;1.20;;
17171;SDS011;8701;50.150;8.756;2024-02-23T11:28:21;2.60;;;0.83;;
17171;SDS011;8701;50.150;8.756;2024-02-23T11:32:24;3.13;;;1.00;;
17171;SDS011;8701;50.150;8.756;2024-02-23T11:36:39;2.60;;;1.17;;
17171;SDS011;8701;50.150;8.756;2024-02-23T11:40:42;5.60;;;1.43;;
17171;SDS011;8701;50.150;8.756;2024-02-23T11:44:45;6.40;;;1.20;;
17171;SDS011;8701;50.150;8.756;2024-02-23T11:48:48;4.83;;;1.10;;
17171;SDS011;8701;50.150;8.756;2024-02-23T11:52:54;6.43;;;1.17;;
17171;SDS011;8701;50.150;8.756;2024-02-23T11:56:57;5.20;;;1.10;;
17171;SDS011;8701;50.150;8.756;2024-02-23T12:01:01;4.93;;;1.00;;
17171;SDS011;8701;50.150;8.756;2024-02-23T12:05:04;3.13;;;1.10;;
17171;SDS011;8701;50.150;8.756;2024-02-23T12:09:07;3.70;;;1.10;;
17171;SDS011;8701;50.150;8.756;2024-02-23T12:13:11;5.70;;;0.97;;
17171;SDS011;8701;50.150;8.756;2024-02-23T12:17:13;5.57;;;1.10;;
17171;SDS011;8701;50.150;8.756;2024-02-23T12:21:16;4.23;;;1.30;;
17171;SDS011;8701;50.150;8.756;2024-02-23T12:25:20;1.70;;;0.90;;
17171;SDS011;8701;50.150;8.756;2024-02-23T12:29:24;4.20;;;1.50;;
17171;SDS011;8701;50.150;8.756;2024-02-23T12:33:28;3.43;;;0.90;;
17171;SDS011;8701;50.150;8.756;2024-02-23T12:37:34;3.57;;;0.90;;
17171;SDS011;8701;50.150;8.756;2024-02-23T12:41:37;5.50;;;1.20;;
17171;SDS011;8701;50.150;8.756;2024-02-23T12:45:40;3.43;;;0.90;;
17171;SDS011;8701;50.150;8.756;2024-02-23T12:49:44;8.17;;;1.30;;
17171;SDS011;8701;50.150;8.756;2024-02-23T12:53:46;4.20;;;1.10;;
17171;SDS011;8701;50.150;8.756;2024-02-23T12:57:49;11.40;;;1.20;;
17171;SDS011;8701;50.150;8.756;2024-02-23T13:01:52;3.43;;;1.30;;
17171;SDS011;8701;50.150;8.756;2024-02-23T13:05:55;3.10;;;1.10;;
17171;SDS011;8701;50.150;8.756;2024-02-23T13:09:58;3.30;;;1.20;;
17171;SDS011;8701;50.150;8.756;2024-02-23T13:14:00;1.37;;;0.97;;
17171;SDS011;8701;50.150;8.756;2024-02-23T13:18:04;3.40;;;1.00;;
17171;SDS011;8701;50.150;8.756;2024-02-23T13:22:07;3.13;;;1.10;;
17171;SDS011;8701;50.150;8.756;2024-02-23T13:26:09;3.10;;;1.30;;
17171;SDS011;8701;50.150;8.756;2024-02-23T13:30:15;11.17;;;1.20;;
17171;SDS011;8701;50.150;8.756;2024-02-23T13:34:19;1.23;;;0.87;;
17171;SDS011;8701;50.150;8.756;2024-02-23T13:38:21;3.37;;;1.13;;
17171;SDS011;8701;50.150;8.756;2024-02-23T13:42:23;3.20;;;1.60;;
17171;SDS011;8701;50.150;8.756;2024-02-23T13:46:25;2.80;;;1.37;;
17171;SDS011;8701;50.150;8.756;2024-02-23T13:50:29;4.30;;;1.37;;
17171;SDS011;8701;50.150;8.756;2024-02-23T13:54:31;5.67;;;1.37;;
17171;SDS011;8701;50.150;8.756;2024-02-23T13:58:34;4.80;;;1.50;;
17171;SDS011;8701;50.150;8.756;2024-02-23T14:02:36;6.37;;;2.60;;
17171;SDS011;8701;50.150;8.756;2024-02-23T14:06:42;9.63;;;1.30;;
17171;SDS011;8701;50.150;8.756;2024-02-23T14:10:44;6.40;;;1.37;;
17171;SDS011;8701;50.150;8.756;2024-02-23T14:14:48;13.30;;;1.70;;
17171;SDS011;8701;50.150;8.756;2024-02-23T14:18:50;1.80;;;1.13;;
17171;SDS011;8701;50.150;8.756;2024-02-23T14:22:54;3.60;;;1.00;;
17171;SDS011;8701;50.150;8.756;2024-02-23T14:26:56;6.00;;;1.40;;
17171;SDS011;8701;50.150;8.756;2024-02-23T14:30:59;5.47;;;1.23;;
17171;SDS011;8701;50.150;8.756;2024-02-23T14:35:02;3.93;;;1.47;;
17171;SDS011;8701;50.150;8.756;2024-02-23T14:39:06;12.57;;;2.23;;
17171;SDS011;8701;50.150;8.756;2024-02-23T14:43:10;5.93;;;1.60;;
17171;SDS011;8701;50.150;8.756;2024-02-23T14:47:12;3.90;;;1.37;;
17171;SDS011;8701;50.150;8.756;2024-02-23T14:51:15;6.27;;;1.03;;
17171;SDS011;8701;50.150;8.756;2024-02-23T14:55:19;3.83;;;1.33;;
17171;SDS011;8701;50.150;8.756;2024-02-23T14:59:22;2.10;;;1.00;;
17171;SDS011;8701;50.150;8.756;2024-02-23T15:03:24;9.70;;;2.13;;
17171;SDS011;8701;50.150;8.756;2024-02-23T15:07:27;4.17;;;1.13;;
17171;SDS011;8701;50.150;8.756;2024-02-23T15:11:31;5.43;;;1.40;;
17171;SDS011;8701;50.150;8.756;2024-02-23T15:15:34;1.90;;;0.90;;
17171;SDS011;8701;50.150;8.756;2024-02-23T15:19:40;2.27;;;0.90;;
17171;SDS011;8701;50.150;8.756;2024-02-23T15:23:43;1.83;;;0.93;;
17171;SDS011;8701;50.150;8.756;2024-02-23T15:27:47;5.13;;;1.20;;
17171;SDS011;8701;50.150;8.756;2024-02-23T15:31:49;2.63;;;1.17;;
17171;SDS011;8701;50.150;8.756;2024-02-23T15:35:52;2.27;;;1.20;;
17171;SDS011;8701;50.150;8.756;2024-02-23T15:39:54;2.17;;;1.13;;
17171;SDS011;8701;50.150;8.756;2024-02-23T15:43:58;2.87;;;1.00;;
17171;SDS011;8701;50.150;8.756;2024-02-23T15:48:00;1.23;;;0.80;;
17171;SDS011;8701;50.150;8.756;2024-02-23T15:52:03;1.90;;;1.00;;
17171;SDS011;8701;50.150;8.756;2024-02-23T15:56:10;1.93;;;0.90;;
17171;SDS011;8701;50.150;8.756;2024-02-23T16:00:14;3.03;;;1.10;;
17171;SDS011;8701;50.150;8.756;2024-02-23T16:04:16;3.07;;;1.57;;
17171;SDS011;8701;50.150;8.756;2024-02-23T16:08:18;5.03;;;1.20;;
17171;SDS011;8701;50.150;8.756;2024-02-23T16:12:39;2.10;;;1.00;;
17171;SDS011;8701;50.150;8.756;2024-02-23T16:16:42;2.53;;;0.90;;
17171;SDS011;8701;50.150;8.756;2024-02-23T16:20:45;3.70;;;1.80;;
17171;SDS011;8701;50.150;8.756;2024-02-23T16:24:47;2.37;;;0.90;;
17171;SDS011;8701;50.150;8.756;2024-02-23T16:28:50;4.20;;;1.40;;
17171;SDS011;8701;50.150;8.756;2024-02-23T16:32:53;7.37;;;1.50;;
17171;SDS011;8701;50.150;8.756;2024-02-23T16:36:56;2.30;;;1.00;;
17171;SDS011;8701;50.150;8.756;2024-02-23T16:40:59;5.07;;;1.23;;
17171;SDS011;8701;50.150;8.756;2024-02-23T16:45:01;2.90;;;1.30;;
17171;SDS011;8701;50.150;8.756;2024-02-23T16:49:05;6.07;;;2.83;;
17171;SDS011;8701;50.150;8.756;2024-02-23T16:53:09;3.30;;;2.57;;
17171;SDS011;8701;50.150;8.756;2024-02-23T16:57:11;3.13;;;2.07;;
17171;SDS011;8701;50.150;8.756;2024-02-23T17:01:14;4.53;;;1.67;;
17171;SDS011;8701;50.150;8.756;2024-02-23T17:05:18;4.67;;;1.27;;
17171;SDS011;8701;50.150;8.756;2024-02-23T17:09:20;4.13;;;1.93;;
17171;SDS011;8701;50.150;8.756;2024-02-23T17:13:22;3.13;;;1.53;;
17171;SDS011;8701;50.150;8.756;2024-02-23T17:17:26;2.80;;;1.40;;
17171;SDS011;8701;50.150;8.756;2024-02-23T17:21:29;2.50;;;1.43;;
17171;SDS011;8701;50.150;8.756;2024-02-23T17:25:32;1.77;;;1.50;;
17171;SDS011;8701;50.150;8.756;2024-02-23T17:29:34;3.20;;;1.23;;
17171;SDS011;8701;50.150;8.756;2024-02-23T17:33:36;4.20;;;1.73;;
17171;SDS011;8701;50.150;8.756;2024-02-23T17:37:40;4.43;;;1.20;;
17171;SDS011;8701;50.150;8.756;2024-02-23T17:41:42;3.60;;;1.67;;
17171;SDS011;8701;50.150;8.756;2024-02-23T17:45:45;3.03;;;1.90;;
17171;SDS011;8701;50.150;8.756;2024-02-23T17:49:47;3.73;;;1.87;;
17171;SDS011;8701;50.150;8.756;2024-02-23T17:53:51;4.77;;;1.40;;
17171;SDS011;8701;50.150;8.756;2024-02-23T17:57:53;5.43;;;1.70;;
17171;SDS011;8701;50.150;8.756;2024-02-23T18:01:58;9.27;;;1.93;;
17171;SDS011;8701;50.150;8.756;2024-02-23T18:06:01;7.93;;;2.40;;
17171;SDS011;8701;50.150;8.756;2024-02-23T18:10:06;4.47;;;2.20;;
17171;SDS011;8701;50.150;8.756;2024-02-23T18:14:09;6.77;;;2.90;;
17171;SDS011;8701;50.150;8.756;2024-02-23T18:18:14;5.50;;;2.70;;
17171;SDS011;8701;50.150;8.756;2024-02-23T18:22:22;4.97;;;1.60;;
17171;SDS011;8701;50.150;8.756;2024-02-23T18:26:25;2.80;;;1.73;;
17171;SDS011;8701;50.150;8.756;2024-02-23T18:30:27;5.40;;;1.90;;
17171;SDS011;8701;50.150;8.756;2024-02-23T18:34:30;3.33;;;2.17;;
17171;SDS011;8701;50.150;8.756;2024-02-23T18:38:32;4.03;;;1.47;;
17171;SDS011;8701;50.150;8.756;2024-02-23T18:42:36;2.53;;;1.20;;
17171;SDS011;8701;50.150;8.756;2024-02-23T18:46:39;5.27;;;1.40;;
17171;SDS011;8701;50.150;8.756;2024-02-23T18:50:41;6.07;;;1.70;;
17171;SDS011;8701;50.150;8.756;2024-02-23T18:54:43;3.60;;;1.67;;
17171;SDS011;8701;50.150;8.756;2024-02-23T18:58:47;2.83;;;1.83;;
17171;SDS011;8701;50.150;8.756;2024-02-23T19:02:49;2.03;;;1.60;;
17171;SDS011;8701;50.150;8.756;2024-02-23T19:06:52;6.13;;;1.83;;
17171;SDS011;8701;50.150;8.756;2024-02-23T19:10:54;2.33;;;1.50;;
17171;SDS011;8701;50.150;8.756;2024-02-23T19:14:57;1.63;;;1.30;;
17171;SDS011;8701;50.150;8.756;2024-02-23T19:19:00;2.73;;;1.70;;
17171;SDS011;8701;50.150;8.756;2024-02-23T19:23:04;3.20;;;1.53;;
17171;SDS011;8701;50.150;8.756;2024-02-23T19:27:07;3.07;;;2.17;;
17171;SDS011;8701;50.150;8.756;2024-02-23T19:31:10;4.70;;;1.40;;
17171;SDS011;8701;50.150;8.756;2024-02-23T19:35:13;2.27;;;1.73;;
17171;SDS011;8701;50.150;8.756;2024-02-23T19:39:15;2.40;;;1.53;;
17171;SDS011;8701;50.150;8.756;2024-02-23T19:43:17;3.67;;;1.60;;
17171;SDS011;8701;50.150;8.756;2024-02-23T19:47:21;8.57;;;1.87;;
17171;SDS011;8701;50.150;8.756;2024-02-23T19:51:23;4.07;;;1.60;;
17171;SDS011;8701;50.150;8.756;2024-02-23T19:55:26;3.83;;;1.67;;
17171;SDS011;8701;50.150;8.756;2024-02-23T19:59:28;13.63;;;3.73;;
17171;SDS011;8701;50.150;8.756;2024-02-23T20:03:34;3.90;;;2.30;;
17171;SDS011;8701;50.150;8.756;2024-02-23T20:07:36;10.53;;;2.80;;
17171;SDS011;8701;50.150;8.756;2024-02-23T20:11:39;1.93;;;1.57;;
17171;SDS011;8701;50.150;8.756;2024-02-23T20:15:42;4.40;;;1.93;;
17171;SDS011;8701;50.150;8.756;2024-02-23T20:19:46;5.57;;;3.17;;
17171;SDS011;8701;50.150;8.756;2024-02-23T20:23:48;3.30;;;1.93;;
17171;SDS011;8701;50.150;8.756;2024-02-23T20:27:50;7.20;;;1.80;;
17171;SDS011;8701;50.150;8.756;2024-02-23T20:31:53;3.77;;;2.00;;
17171;SDS011;8701;50.150;8.756;2024-02-23T20:35:57;3.13;;;2.17;;
17171;SDS011;8701;50.150;8.756;2024-02-23T20:40:00;12.13;;;2.50;;
17171;SDS011;8701;50.150;8.756;2024-02-23T20:44:03;7.93;;;2.70;;
17171;SDS011;8701;50.150;8.756;2024-02-23T20:48:05;3.20;;;2.40;;
17171;SDS011;8701;50.150;8.756;2024-02-23T20:52:09;5.57;;;2.30;;
17171;SDS011;8701;50.150;8.756;2024-02-23T20:56:14;3.10;;;2.17;;
17171;SDS011;8701;50.150;8.756;2024-02-23T21:00:16;2.53;;;1.70;;
17171;SDS011;8701;50.150;8.756;2024-02-23T21:04:19;8.87;;;2.10;;
17171;SDS011;8701;50.150;8.756;2024-02-23T21:08:23;7.00;;;2.20;;
17171;SDS011;8701;50.150;8.756;2024-02-23T21:12:28;5.80;;;2.40;;
17171;SDS011;8701;50.150;8.756;2024-02-23T21:16:30;5.97;;;2.20;;
17171;SDS011;8701;50.150;8.756;2024-02-23T21:20:32;2.60;;;1.77;;
17171;SDS011;8701;50.150;8.756;2024-02-23T21:24:36;2.93;;;2.47;;
17171;SDS011;8701;50.150;8.756;2024-02-23T21:28:40;2.83;;;1.83;;
17171;SDS011;8701;50.150;8.756;2024-02-23T21:32:42;3.63;;;2.00;;
17171;SDS011;8701;50.150;8.756;2024-02-23T21:36:44;3.97;;;2.27;;
17171;SDS011;8701;50.150;8.756;2024-02-23T21:40:48;3.50;;;2.00;;
17171;SDS011;8701;50.150;8.756;2024-02-23T21:44:50;7.07;;;2.23;;
17171;SDS011;8701;50.150;8.756;2024-02-23T21:48:53;6.47;;;2.60;;
17171;SDS011;8701;50.150;8.756;2024-02-23T21:52:55;9.30;;;2.27;;
17171;SDS011;8701;50.150;8.756;2024-02-23T21:56:59;5.30;;;2.57;;
17171;SDS011;8701;50.150;8.756;2024-02-23T22:01:01;5.53;;;2.37;;
17171;SDS011;8701;50.150;8.756;2024-02-23T22:05:04;10.33;;;2.70;;
17171;SDS011;8701;50.150;8.756;2024-02-23T22:09:07;4.20;;;2.70;;
17171;SDS011;8701;50.150;8.756;2024-02-23T22:13:10;3.93;;;2.63;;
17171;SDS011;8701;50.150;8.756;2024-02-23T22:17:13;4.00;;;2.40;;
17171;SDS011;8701;50.150;8.756;2024-02-23T22:21:15;6.80;;;2.80;;
17171;SDS011;8701;50.150;8.756;2024-02-23T22:25:19;3.13;;;2.50;;
17171;SDS011;8701;50.150;8.756;2024-02-23T22:29:23;3.20;;;2.07;;
17171;SDS011;8701;50.150;8.756;2024-02-23T22:33:25;8.40;;;2.30;;
17171;SDS011;8701;50.150;8.756;2024-02-23T22:37:28;4.03;;;2.30;;
17171;SDS011;8701;50.150;8.756;2024-02-23T22:41:31;5.90;;;2.13;;
17171;SDS011;8701;50.150;8.756;2024-02-23T22:45:35;4.77;;;2.70;;
17171;SDS011;8701;50.150;8.756;2024-02-23T22:49:37;10.83;;;2.70;;
17171;SDS011;8701;50.150;8.756;2024-02-23T22:53:39;7.47;;;2.40;;
17171;SDS011;8701;50.150;8.756;2024-02-23T22:57:42;5.93;;;2.43;;
17171;SDS011;8701;50.150;8.756;2024-02-23T23:01:46;4.97;;;2.50;;
17171;SDS011;8701;50.150;8.756;2024-02-23T23:05:48;4.30;;;2.50;;
17171;SDS011;8701;50.150;8.756;2024-02-23T23:09:50;5.33;;;2.30;;
17171;SDS011;8701;50.150;8.756;2024-02-23T23:13:52;2.83;;;1.93;;
17171;SDS011;8701;50.150;8.756;2024-02-23T23:18:00;4.60;;;2.40;;
17171;SDS011;8701;50.150;8.756;2024-02-23T23:22:02;5.27;;;2.40;;
17171;SDS011;8701;50.150;8.756;2024-02-23T23:26:05;3.47;;;2.20;;
17171;SDS011;8701;50.150;8.756;2024-02-23T23:30:07;2.30;;;2.10;;
17171;SDS011;8701;50.150;8.756;2024-02-23T23:34:11;5.23;;;2.33;;
17171;SDS011;8701;50.150;8.756;2024-02-23T23:38:14;7.57;;;2.03;;
17171;SDS011;8701;50.150;8.756;2024-02-23T23:42:17;4.30;;;2.03;;
17171;SDS011;8701;50.150;8.756;2024-02-23T23:46:19;6.30;;;2.10;;
17171;SDS011;8701;50.150;8.756;2024-02-23T23:50:23;5.37;;;2.50;;
17171;SDS011;8701;50.150;8.756;2024-02-23T23:54:25;5.97;;;2.27;;
17171;SDS011;8701;50.150;8.756;2024-02-23T23:58:27;14.30;;;2.60;;
